createdAt,value
2022-09-01T00:13:54.563Z,4
2022-09-01T00:30:29.285Z,6
2022-09-01T00:47:02.907Z,6
2022-09-01T01:03:36.683Z,5
2022-09-01T01:20:10.307Z,4
2022-09-01T01:36:44.306Z,5
2022-09-01T01:53:19.045Z,5
2022-09-01T02:09:52.503Z,5
2022-09-01T02:26:27.495Z,4
2022-09-01T02:43:02.390Z,5
2022-09-01T02:59:35.777Z,4
2022-09-01T03:16:10.731Z,4
2022-09-01T03:32:44.727Z,3
2022-09-01T03:49:19.346Z,3
2022-09-01T04:05:53.242Z,4
2022-09-01T04:22:27.264Z,3
2022-09-01T04:39:01.494Z,3
2022-09-01T04:55:36.001Z,1
2022-09-01T05:12:10.706Z,4
2022-09-01T05:28:44.766Z,3
2022-09-01T05:45:18.115Z,3
2022-09-01T06:01:52.416Z,4
2022-09-01T06:18:21.575Z,5
2022-09-01T06:34:56.797Z,7
2022-09-01T06:51:32.894Z,6
2022-09-01T07:08:10.827Z,5
2022-09-01T07:25:11.454Z,6
2022-09-01T07:58:08.127Z,7
2022-09-01T08:14:46.964Z,7
2022-09-01T08:48:37.175Z,9
2022-09-01T09:04:45.936Z,9
2022-09-01T09:21:24.955Z,9
2022-09-01T09:38:04.273Z,8
2022-09-01T09:54:45.098Z,10
2022-09-01T10:11:24.875Z,9
2022-09-01T10:28:04.634Z,11
2022-09-01T10:44:45.773Z,10
2022-09-01T11:01:47.357Z,11
2022-09-01T11:18:04.843Z,10
2022-09-01T11:34:42.568Z,11
2022-09-01T11:51:20.695Z,10
2022-09-01T12:07:58.876Z,11
2022-09-01T12:24:37.247Z,10
2022-09-01T12:41:15.172Z,11
2022-09-01T12:57:54.255Z,11
2022-09-01T13:14:33.200Z,12
2022-09-01T13:48:17.649Z,11
2022-09-01T14:04:28.702Z,13
2022-09-01T14:21:07.168Z,12
2022-09-01T14:37:45.404Z,13
2022-09-01T14:54:22.965Z,12
2022-09-01T15:11:01.952Z,12
2022-09-01T15:27:41.467Z,12
2022-09-01T15:44:18.010Z,12
2022-09-01T16:00:56.041Z,11
2022-09-01T16:17:34.322Z,13
2022-09-01T16:34:12.296Z,14
2022-09-01T16:50:54.555Z,13
2022-09-01T17:07:29.717Z,13
2022-09-01T17:24:06.124Z,13
2022-09-01T17:40:43.293Z,12
2022-09-01T17:57:20.353Z,11
2022-09-01T18:13:58.087Z,10
2022-09-01T18:30:51.913Z,10
2022-09-01T18:47:13.111Z,8
2022-09-01T19:03:49.843Z,6
2022-09-01T19:20:26.527Z,5
2022-09-01T19:37:01.808Z,6
2022-09-01T19:53:37.560Z,6
2022-09-01T20:10:13.846Z,6
2022-09-01T20:26:49.427Z,7
2022-09-01T20:43:25.107Z,6
2022-09-01T21:00:00.513Z,6
2022-09-01T21:16:35.817Z,4
2022-09-01T21:33:11.424Z,7
2022-09-01T21:49:46.931Z,8
2022-09-01T22:06:21.697Z,8
2022-09-01T22:22:57.178Z,8
2022-09-01T22:39:32.166Z,8
2022-09-01T22:56:07.044Z,6
2022-09-01T23:12:42.595Z,6
2022-09-01T23:29:18.762Z,6
2022-09-01T23:45:55.108Z,4
